createdAt,value
2023-02-09T00:01:20.311Z,13.13
2023-02-09T00:03:47.553Z,11.70
2023-02-09T00:06:17.314Z,12.93
2023-02-09T00:08:44.574Z,11.67
2023-02-09T00:11:43.474Z,12.77
2023-02-09T00:14:15.638Z,12.10
2023-02-09T00:16:42.693Z,13.30
2023-02-09T00:19:10.846Z,13.07
2023-02-09T00:21:38.627Z,12.00
2023-02-09T00:24:06.501Z,11.83
2023-02-09T00:26:34.045Z,13.90
2023-02-09T00:29:01.004Z,12.10
2023-02-09T00:31:28.022Z,11.50
2023-02-09T00:33:55.093Z,12.47
2023-02-09T00:36:21.981Z,13.73
2023-02-09T00:38:49.099Z,15.23
2023-02-09T00:41:16.866Z,12.37
2023-02-09T00:43:43.802Z,11.27
2023-02-09T00:46:10.742Z,12.40
2023-02-09T00:48:37.777Z,13.37
2023-02-09T00:51:04.834Z,12.60
2023-02-09T00:53:31.741Z,13.07
2023-02-09T00:56:00.030Z,13.23
2023-02-09T00:58:27.050Z,12.90
2023-02-09T01:00:54.092Z,11.13
2023-02-09T01:03:21.079Z,12.30
2023-02-09T01:05:47.943Z,13.17
2023-02-09T01:08:14.817Z,12.83
2023-02-09T01:10:41.790Z,13.47
2023-02-09T01:13:08.830Z,12.60
2023-02-09T01:15:35.818Z,13.23
2023-02-09T01:18:02.782Z,12.67
2023-02-09T01:20:29.701Z,13.90
2023-02-09T01:22:56.654Z,13.40
2023-02-09T01:25:23.631Z,13.23
2023-02-09T01:27:50.531Z,14.30
2023-02-09T01:30:18.313Z,12.83
2023-02-09T01:32:45.220Z,13.03
2023-02-09T01:35:12.191Z,12.57
2023-02-09T01:37:39.139Z,13.40
2023-02-09T01:40:07.592Z,12.00
2023-02-09T01:42:34.671Z,12.80
2023-02-09T01:45:01.532Z,11.50
2023-02-09T01:47:28.706Z,11.20
2023-02-09T01:49:55.928Z,11.50
2023-02-09T01:52:27.928Z,11.40
2023-02-09T01:55:01.216Z,10.70
2023-02-09T01:57:36.084Z,10.53
2023-02-09T02:00:10.955Z,11.13
2023-02-09T02:02:38.427Z,10.87
2023-02-09T02:05:06.756Z,10.43
2023-02-09T02:07:53.741Z,11.40
2023-02-09T02:10:21.381Z,11.43
2023-02-09T02:12:48.319Z,11.13
2023-02-09T02:15:16.212Z,10.17
2023-02-09T02:18:18.401Z,11.07
2023-02-09T02:21:16.141Z,11.07
2023-02-09T02:24:04.826Z,10.13
2023-02-09T02:27:01.557Z,9.73
2023-02-09T02:30:05.699Z,10.87
2023-02-09T02:33:01.115Z,11.23
2023-02-09T02:35:36.659Z,11.80
2023-02-09T02:38:12.615Z,10.90
2023-02-09T02:40:52.622Z,11.83
2023-02-09T02:43:23.879Z,13.07
2023-02-09T02:46:00.736Z,13.57
2023-02-09T02:48:36.389Z,13.77
2023-02-09T02:51:08.074Z,13.10
2023-02-09T02:53:38.199Z,13.80
2023-02-09T02:56:14.469Z,13.20
2023-02-09T02:58:43.782Z,13.33
2023-02-09T03:01:15.513Z,13.70
2023-02-09T03:03:45.059Z,14.70
2023-02-09T03:06:13.802Z,13.23
2023-02-09T03:08:57.773Z,13.10
2023-02-09T03:11:31.453Z,14.00
2023-02-09T03:14:13.175Z,13.70
2023-02-09T03:16:48.437Z,14.57
2023-02-09T03:19:41.195Z,13.17
2023-02-09T03:22:12.894Z,13.07
2023-02-09T03:24:54.026Z,14.03
2023-02-09T03:27:42.715Z,14.07
2023-02-09T03:30:13.512Z,13.93
2023-02-09T03:32:42.410Z,13.53
2023-02-09T03:35:12.664Z,14.47
2023-02-09T03:37:39.726Z,14.07
2023-02-09T03:40:07.388Z,13.23
2023-02-09T03:42:35.293Z,13.93
2023-02-09T03:45:02.285Z,13.57
2023-02-09T03:47:30.884Z,13.03
2023-02-09T03:49:58.448Z,13.13
2023-02-09T03:52:25.488Z,13.90
2023-02-09T03:54:52.365Z,13.33
2023-02-09T03:57:19.289Z,12.43
2023-02-09T03:59:46.229Z,13.40
2023-02-09T04:02:13.166Z,12.87
2023-02-09T04:04:40.153Z,11.93
2023-02-09T04:07:07.283Z,12.77
2023-02-09T04:09:34.489Z,12.90
2023-02-09T04:12:01.376Z,13.23
2023-02-09T04:14:28.369Z,13.07
2023-02-09T04:16:55.294Z,12.50
2023-02-09T04:19:22.261Z,12.97
2023-02-09T04:21:49.224Z,13.97
2023-02-09T04:24:16.127Z,13.03
2023-02-09T04:26:43.006Z,12.77
2023-02-09T04:29:10.056Z,12.43
2023-02-09T04:31:37.124Z,12.70
2023-02-09T04:34:04.087Z,12.40
2023-02-09T04:36:31.024Z,11.73
2023-02-09T04:38:58.018Z,11.83
2023-02-09T04:41:25.007Z,11.57
2023-02-09T04:43:51.938Z,11.43
2023-02-09T04:46:19.665Z,10.67
2023-02-09T04:48:47.636Z,11.30
2023-02-09T04:51:15.019Z,11.17
2023-02-09T04:53:42.197Z,10.80
2023-02-09T04:56:14.880Z,10.77
2023-02-09T04:59:00.448Z,9.93
2023-02-09T05:01:27.713Z,9.23
2023-02-09T05:03:54.764Z,10.23
2023-02-09T05:06:21.977Z,10.13
2023-02-09T05:08:49.078Z,9.57
2023-02-09T05:11:16.178Z,10.17
2023-02-09T05:13:43.371Z,11.43
2023-02-09T05:16:14.657Z,9.73
2023-02-09T05:18:41.616Z,10.67
2023-02-09T05:21:08.600Z,10.30
2023-02-09T05:23:35.547Z,9.97
2023-02-09T05:26:02.582Z,9.70
2023-02-09T05:28:29.709Z,10.43
2023-02-09T05:30:56.742Z,9.90
2023-02-09T05:33:25.101Z,9.83
2023-02-09T05:35:53.647Z,9.97
2023-02-09T05:38:20.536Z,10.00
2023-02-09T05:40:47.873Z,10.57
2023-02-09T05:43:15.010Z,9.90
2023-02-09T05:45:41.945Z,10.60
2023-02-09T05:48:08.901Z,10.27
2023-02-09T05:50:36.129Z,10.13
2023-02-09T05:53:03.120Z,9.57
2023-02-09T05:55:30.529Z,9.70
2023-02-09T05:57:57.466Z,9.87
2023-02-09T06:00:25.249Z,9.87
2023-02-09T06:02:52.203Z,10.50
2023-02-09T06:05:21.193Z,10.40
2023-02-09T06:07:49.260Z,10.40
2023-02-09T06:10:17.521Z,9.87
2023-02-09T06:12:44.825Z,10.00
2023-02-09T06:15:11.879Z,9.93
2023-02-09T06:17:38.828Z,9.43
2023-02-09T06:20:06.407Z,9.50
2023-02-09T06:22:33.325Z,10.07
2023-02-09T06:25:00.272Z,10.97
2023-02-09T06:27:27.305Z,9.83
2023-02-09T06:29:54.260Z,10.00
2023-02-09T06:32:21.149Z,10.07
2023-02-09T06:34:48.089Z,9.03
2023-02-09T06:37:14.993Z,10.90
2023-02-09T06:39:41.967Z,10.40
2023-02-09T06:42:09.038Z,11.20
2023-02-09T06:44:35.897Z,10.00
2023-02-09T06:47:02.850Z,9.97
2023-02-09T06:49:29.840Z,9.67
2023-02-09T06:51:56.866Z,10.50
2023-02-09T06:54:24.351Z,10.00
2023-02-09T06:56:51.341Z,10.60
2023-02-09T06:59:18.314Z,9.87
2023-02-09T07:01:45.227Z,9.70
2023-02-09T07:04:12.163Z,9.30
2023-02-09T07:06:39.062Z,9.40
2023-02-09T07:09:06.040Z,9.80
2023-02-09T07:11:32.998Z,10.50
2023-02-09T07:14:00.124Z,9.80
2023-02-09T07:16:27.151Z,9.73
2023-02-09T07:18:54.118Z,10.00
2023-02-09T07:21:21.552Z,9.87
2023-02-09T07:23:49.480Z,9.63
2023-02-09T07:26:18.517Z,9.90
2023-02-09T07:28:45.717Z,10.17
2023-02-09T07:31:14.661Z,10.93
2023-02-09T07:33:41.869Z,10.63
2023-02-09T07:36:11.349Z,10.93
2023-02-09T07:38:39.603Z,10.83
2023-02-09T07:41:08.195Z,10.77
2023-02-09T07:43:35.090Z,10.33
2023-02-09T07:46:07.856Z,11.40
2023-02-09T07:48:36.136Z,10.43
2023-02-09T07:51:03.848Z,11.17
2023-02-09T07:53:30.915Z,11.57
2023-02-09T07:55:58.137Z,11.50
2023-02-09T07:58:25.023Z,10.80
2023-02-09T08:00:52.453Z,11.77
2023-02-09T08:03:22.473Z,11.60
2023-02-09T08:06:40.711Z,11.27
2023-02-09T08:09:10.149Z,12.90
2023-02-09T08:12:02.988Z,12.50
2023-02-09T08:14:44.424Z,12.10
2023-02-09T08:17:20.647Z,12.90
2023-02-09T08:20:02.356Z,12.67
2023-02-09T08:22:34.416Z,12.43
2023-02-09T08:25:01.885Z,12.47
2023-02-09T08:27:29.561Z,12.60
2023-02-09T08:29:57.827Z,12.83
2023-02-09T08:32:24.720Z,11.43
2023-02-09T08:34:51.625Z,11.83
2023-02-09T08:37:18.573Z,12.17
2023-02-09T08:39:45.513Z,11.40
2023-02-09T08:42:12.459Z,11.37
2023-02-09T08:44:39.326Z,12.57
2023-02-09T08:47:07.395Z,12.90
2023-02-09T08:49:34.544Z,12.13
2023-02-09T08:52:01.683Z,12.03
2023-02-09T08:54:28.661Z,12.80
2023-02-09T08:56:55.623Z,12.20
2023-02-09T08:59:23.523Z,12.93
2023-02-09T09:01:50.838Z,14.27
2023-02-09T09:04:17.778Z,13.43
2023-02-09T09:06:44.667Z,12.60
2023-02-09T09:09:11.627Z,13.03
2023-02-09T09:11:38.708Z,12.70
2023-02-09T09:14:05.929Z,12.07
2023-02-09T09:16:32.910Z,12.70
2023-02-09T09:18:59.933Z,13.53
2023-02-09T09:21:26.863Z,12.60
2023-02-09T09:23:53.751Z,12.67
2023-02-09T09:26:21.353Z,13.10
2023-02-09T09:28:52.057Z,13.30
2023-02-09T09:31:19.757Z,13.23
2023-02-09T09:33:47.919Z,13.33
2023-02-09T09:36:15.042Z,13.17
2023-02-09T09:38:42.847Z,14.97
2023-02-09T09:41:32.874Z,15.13
2023-02-09T09:44:01.623Z,13.97
2023-02-09T09:46:38.829Z,15.20
2023-02-09T09:49:06.789Z,14.83
2023-02-09T09:51:42.012Z,15.20
2023-02-09T09:54:22.147Z,15.53
2023-02-09T09:56:51.119Z,14.77
2023-02-09T09:59:26.413Z,15.80
2023-02-09T10:01:55.447Z,15.43
2023-02-09T10:04:22.630Z,15.37
2023-02-09T10:07:02.633Z,16.20
2023-02-09T10:09:33.803Z,16.10
2023-02-09T10:12:19.143Z,15.20
2023-02-09T10:14:46.033Z,16.00
2023-02-09T10:17:12.906Z,16.87
2023-02-09T10:19:39.858Z,16.53
2023-02-09T10:22:13.172Z,15.70
2023-02-09T10:24:40.837Z,16.80
2023-02-09T10:27:27.860Z,15.80
2023-02-09T10:29:55.003Z,16.27
2023-02-09T10:32:51.436Z,14.53
2023-02-09T10:35:27.446Z,15.73
2023-02-09T10:38:02.591Z,16.53
2023-02-09T10:40:33.230Z,15.50
2023-02-09T10:43:07.150Z,16.70
2023-02-09T10:45:44.095Z,17.20
2023-02-09T10:48:14.172Z,16.47
2023-02-09T10:50:56.170Z,16.60
2023-02-09T10:53:33.481Z,16.73
2023-02-09T10:56:12.575Z,16.43
2023-02-09T10:58:39.818Z,16.67
2023-02-09T11:01:09.640Z,16.10
2023-02-09T11:03:37.945Z,15.90
2023-02-09T11:06:18.170Z,17.23
2023-02-09T11:09:10.926Z,16.90
2023-02-09T11:11:43.194Z,16.57
2023-02-09T11:14:20.591Z,17.10
2023-02-09T11:16:54.061Z,16.07
2023-02-09T11:19:22.726Z,16.13
2023-02-09T11:22:18.409Z,16.67
2023-02-09T11:25:04.585Z,15.60
2023-02-09T11:27:40.453Z,17.10
2023-02-09T11:30:25.723Z,17.60
2023-02-09T11:32:59.531Z,17.00
2023-02-09T11:35:40.249Z,17.57
2023-02-09T11:38:14.723Z,17.77
2023-02-09T11:40:43.368Z,17.03
2023-02-09T11:43:33.589Z,17.07
2023-02-09T11:46:06.106Z,17.23
2023-02-09T11:48:39.022Z,17.13
2023-02-09T11:51:17.758Z,18.57
2023-02-09T11:54:07.513Z,17.93
2023-02-09T11:56:42.853Z,16.50
2023-02-09T11:59:36.935Z,18.33
2023-02-09T12:02:28.174Z,17.80
2023-02-09T12:04:55.052Z,16.03
2023-02-09T12:07:50.050Z,18.10
2023-02-09T12:10:53.166Z,17.80
2023-02-09T12:13:50.202Z,17.87
2023-02-09T12:16:22.676Z,16.80
2023-02-09T12:18:50.243Z,16.97
2023-02-09T12:21:29.124Z,18.07
2023-02-09T12:23:56.108Z,18.83
2023-02-09T12:26:44.253Z,17.13
2023-02-09T12:29:38.806Z,17.10
2023-02-09T12:32:08.459Z,18.37
2023-02-09T12:34:35.416Z,18.53
2023-02-09T12:37:16.979Z,19.67
2023-02-09T12:40:07.411Z,19.80
2023-02-09T12:42:53.319Z,19.00
2023-02-09T12:45:34.246Z,17.97
2023-02-09T12:48:12.862Z,18.80
2023-02-09T12:50:43.873Z,17.27
2023-02-09T12:53:23.365Z,17.03
2023-02-09T12:56:11.427Z,16.70
2023-02-09T12:58:44.463Z,17.37
2023-02-09T13:01:14.437Z,15.57
2023-02-09T13:03:56.529Z,15.67
2023-02-09T13:06:40.807Z,17.00
2023-02-09T13:09:13.752Z,16.93
2023-02-09T13:11:51.662Z,16.10
2023-02-09T13:14:22.413Z,17.90
2023-02-09T13:17:20.285Z,15.93
2023-02-09T13:20:00.046Z,16.30
2023-02-09T13:22:32.874Z,16.83
2023-02-09T13:25:38.888Z,16.07
2023-02-09T13:28:24.009Z,15.50
2023-02-09T13:30:51.296Z,15.83
2023-02-09T13:33:23.852Z,15.37
2023-02-09T13:36:16.285Z,14.83
2023-02-09T13:38:50.215Z,15.07
2023-02-09T13:41:44.817Z,14.20
2023-02-09T13:44:26.871Z,14.60
2023-02-09T13:46:59.417Z,13.63
2023-02-09T13:49:28.583Z,13.57
2023-02-09T13:52:12.060Z,12.10
2023-02-09T13:54:40.034Z,12.67
2023-02-09T13:57:38.088Z,12.47
2023-02-09T14:00:35.814Z,13.07
2023-02-09T14:03:12.469Z,12.00
2023-02-09T14:05:55.770Z,12.87
2023-02-09T14:08:23.820Z,11.90
2023-02-09T14:11:33.182Z,12.80
2023-02-09T14:14:54.394Z,11.77
2023-02-09T14:17:34.722Z,12.33
2023-02-09T14:20:03.811Z,13.43
2023-02-09T14:22:36.862Z,13.50
2023-02-09T14:25:27.633Z,13.93
2023-02-09T14:27:56.178Z,14.30
2023-02-09T14:30:36.306Z,14.17
2023-02-09T14:33:03.914Z,14.57
2023-02-09T14:35:36.493Z,13.40
2023-02-09T14:38:03.756Z,13.73
2023-02-09T14:40:34.236Z,13.13
2023-02-09T14:43:20.005Z,14.93
2023-02-09T14:45:49.403Z,13.67
2023-02-09T14:48:24.678Z,14.63
2023-02-09T14:51:11.297Z,13.87
2023-02-09T14:53:42.553Z,13.63
2023-02-09T14:56:31.472Z,13.73
2023-02-09T14:58:58.405Z,13.57
2023-02-09T15:01:25.374Z,13.87
2023-02-09T15:03:52.308Z,14.43
2023-02-09T15:06:19.286Z,13.40
2023-02-09T15:08:46.327Z,13.97
2023-02-09T15:11:42.614Z,14.40
2023-02-09T15:14:11.276Z,14.37
2023-02-09T15:16:40.236Z,14.03
2023-02-09T15:19:13.673Z,15.00
2023-02-09T15:21:40.617Z,15.97
2023-02-09T15:24:07.527Z,14.27
2023-02-09T15:26:36.427Z,13.90
2023-02-09T15:29:11.302Z,14.73
2023-02-09T15:31:38.273Z,15.40
2023-02-09T15:34:06.543Z,15.47
2023-02-09T15:36:33.724Z,14.20
2023-02-09T15:39:00.711Z,15.20
2023-02-09T15:41:46.066Z,14.47
2023-02-09T15:44:38.976Z,15.60
2023-02-09T15:47:24.301Z,15.17
2023-02-09T15:49:51.234Z,14.50
2023-02-09T15:52:18.879Z,13.50
2023-02-09T15:54:46.078Z,14.77
2023-02-09T15:57:14.380Z,16.57
2023-02-09T15:59:42.574Z,15.33
2023-02-09T16:02:14.201Z,15.73
2023-02-09T16:04:41.088Z,15.27
2023-02-09T16:07:13.453Z,14.67
2023-02-09T16:09:43.507Z,17.20
2023-02-09T16:12:11.685Z,15.80
2023-02-09T16:14:38.877Z,15.33
2023-02-09T16:17:05.912Z,15.07
2023-02-09T16:19:32.826Z,14.07
2023-02-09T16:22:05.794Z,15.20
2023-02-09T16:24:41.991Z,15.00
2023-02-09T16:27:24.842Z,16.27
2023-02-09T16:29:51.769Z,15.77
2023-02-09T16:32:22.139Z,15.13
2023-02-09T16:34:49.859Z,15.63
2023-02-09T16:37:28.130Z,16.40
2023-02-09T16:39:56.350Z,16.13
2023-02-09T16:42:25.511Z,17.47
2023-02-09T16:44:53.311Z,17.87
2023-02-09T16:47:28.398Z,18.80
2023-02-09T16:49:59.879Z,16.60
2023-02-09T16:52:30.266Z,16.10
2023-02-09T16:54:59.991Z,17.60
2023-02-09T16:57:28.557Z,16.93
2023-02-09T16:59:55.483Z,15.83
2023-02-09T17:02:40.968Z,18.40
2023-02-09T17:05:27.105Z,18.17
2023-02-09T17:08:01.882Z,18.00
2023-02-09T17:10:32.497Z,17.00
2023-02-09T17:13:01.810Z,17.23
2023-02-09T17:15:32.311Z,18.63
2023-02-09T17:18:07.387Z,19.70
2023-02-09T17:20:40.175Z,18.50
2023-02-09T17:23:07.232Z,20.67
2023-02-09T17:25:34.204Z,20.03
2023-02-09T17:28:01.286Z,17.63
2023-02-09T17:30:28.232Z,18.07
2023-02-09T17:33:01.550Z,18.87
2023-02-09T17:35:57.954Z,18.87
2023-02-09T17:38:27.609Z,20.03
2023-02-09T17:40:56.698Z,19.10
2023-02-09T17:43:24.293Z,19.70
2023-02-09T17:45:51.819Z,18.63
2023-02-09T17:48:20.878Z,20.33
2023-02-09T17:50:49.682Z,20.90
2023-02-09T17:53:25.363Z,21.00
2023-02-09T17:55:54.176Z,20.57
2023-02-09T17:58:21.106Z,21.30
2023-02-09T18:00:48.336Z,20.73
2023-02-09T18:03:17.973Z,20.60
2023-02-09T18:05:47.617Z,20.43
2023-02-09T18:08:14.828Z,20.87
2023-02-09T18:10:43.068Z,20.53
2023-02-09T18:13:17.104Z,19.87
2023-02-09T18:15:44.932Z,21.90
2023-02-09T18:18:12.046Z,18.63
2023-02-09T18:20:38.969Z,20.43
2023-02-09T18:23:05.870Z,22.00
2023-02-09T18:25:39.304Z,21.30
2023-02-09T18:28:07.477Z,20.53
2023-02-09T18:30:37.479Z,21.07
2023-02-09T18:33:06.131Z,22.27
2023-02-09T18:35:35.732Z,20.63
2023-02-09T18:38:03.895Z,22.13
2023-02-09T18:40:33.948Z,23.60
2023-02-09T18:43:02.461Z,24.53
2023-02-09T18:45:30.658Z,21.17
2023-02-09T18:47:57.879Z,22.37
2023-02-09T18:50:28.961Z,23.50
2023-02-09T18:53:04.873Z,23.23
2023-02-09T18:55:35.232Z,22.50
2023-02-09T18:58:04.351Z,22.97
2023-02-09T19:00:32.098Z,22.70
2023-02-09T19:02:59.737Z,25.07
2023-02-09T19:05:29.596Z,22.63
2023-02-09T19:07:57.255Z,21.30
2023-02-09T19:10:25.470Z,22.10
2023-02-09T19:12:52.596Z,21.13
2023-02-09T19:15:19.854Z,21.33
2023-02-09T19:17:47.301Z,22.07
2023-02-09T19:20:19.006Z,21.67
2023-02-09T19:22:47.970Z,20.67
2023-02-09T19:25:15.478Z,21.07
2023-02-09T19:27:42.484Z,20.20
2023-02-09T19:30:14.037Z,20.30
2023-02-09T19:32:41.174Z,20.57
2023-02-09T19:35:08.798Z,20.00
2023-02-09T19:37:37.505Z,20.00
2023-02-09T19:40:07.351Z,19.47
2023-02-09T19:42:34.549Z,18.50
2023-02-09T19:45:01.500Z,19.13
2023-02-09T19:47:28.690Z,19.23
2023-02-09T19:49:56.642Z,20.40
2023-02-09T19:52:24.864Z,19.33
2023-02-09T19:54:52.440Z,18.53
2023-02-09T19:57:21.534Z,20.10
2023-02-09T19:59:48.926Z,21.20
2023-02-09T20:02:17.108Z,21.47
2023-02-09T20:04:45.976Z,19.20
2023-02-09T20:07:14.689Z,18.80
2023-02-09T20:09:42.032Z,20.07
2023-02-09T20:12:08.934Z,21.03
2023-02-09T20:14:35.962Z,19.20
2023-02-09T20:17:02.861Z,21.00
2023-02-09T20:19:30.157Z,22.47
2023-02-09T20:21:57.098Z,23.17
2023-02-09T20:24:24.131Z,23.03
2023-02-09T20:26:51.035Z,22.40
2023-02-09T20:29:19.676Z,20.83
2023-02-09T20:31:46.625Z,22.60
2023-02-09T20:34:15.498Z,22.90
2023-02-09T20:36:45.050Z,22.63
2023-02-09T20:39:15.935Z,20.80
2023-02-09T20:42:05.838Z,21.77
2023-02-09T20:44:54.264Z,20.17
2023-02-09T20:47:21.304Z,24.10
2023-02-09T20:49:49.261Z,21.17
2023-02-09T20:52:16.439Z,20.90
2023-02-09T20:54:43.406Z,23.37
2023-02-09T20:57:10.312Z,23.03
2023-02-09T20:59:37.263Z,21.93
2023-02-09T21:02:04.277Z,21.90
2023-02-09T21:04:31.397Z,20.83
2023-02-09T21:07:00.400Z,20.57
2023-02-09T21:09:28.386Z,21.57
2023-02-09T21:11:56.351Z,22.13
2023-02-09T21:14:32.611Z,23.63
2023-02-09T21:17:07.779Z,24.13
2023-02-09T21:19:34.734Z,21.27
2023-02-09T21:22:01.805Z,24.17
2023-02-09T21:24:28.854Z,21.17
2023-02-09T21:26:55.792Z,21.60
2023-02-09T21:29:22.852Z,21.17
2023-02-09T21:31:51.364Z,20.43
2023-02-09T21:34:18.407Z,21.10
2023-02-09T21:36:45.302Z,22.13
2023-02-09T21:39:13.212Z,21.00
2023-02-09T21:41:58.732Z,21.97
2023-02-09T21:44:26.778Z,20.77
2023-02-09T21:46:54.555Z,20.77
2023-02-09T21:49:21.845Z,19.50
2023-02-09T21:51:48.944Z,22.83
2023-02-09T21:54:17.403Z,23.63
2023-02-09T21:56:47.420Z,22.97
2023-02-09T21:59:14.384Z,22.93
2023-02-09T22:01:42.591Z,23.20
2023-02-09T22:04:09.995Z,23.13
2023-02-09T22:06:37.052Z,23.00
2023-02-09T22:09:06.304Z,23.30
2023-02-09T22:11:33.733Z,22.67
2023-02-09T22:14:00.858Z,22.27
2023-02-09T22:16:28.053Z,21.23
2023-02-09T22:18:54.959Z,22.60
2023-02-09T22:21:22.033Z,21.80
2023-02-09T22:23:53.125Z,21.07
2023-02-09T22:26:20.393Z,21.80
2023-02-09T22:28:47.365Z,21.73
2023-02-09T22:31:18.317Z,18.83
2023-02-09T22:33:45.582Z,20.57
2023-02-09T22:36:16.078Z,19.07
2023-02-09T22:38:44.833Z,18.20
2023-02-09T22:41:23.915Z,19.40
2023-02-09T22:43:54.846Z,19.70
2023-02-09T22:46:24.230Z,18.90
2023-02-09T22:48:56.259Z,18.53
2023-02-09T22:51:24.587Z,19.60
2023-02-09T22:53:51.675Z,19.07
2023-02-09T22:56:18.637Z,18.83
2023-02-09T22:58:45.571Z,17.57
2023-02-09T23:01:13.615Z,16.83
2023-02-09T23:03:41.393Z,16.40
2023-02-09T23:06:12.846Z,15.73
2023-02-09T23:08:39.742Z,14.87
2023-02-09T23:11:10.100Z,14.40
2023-02-09T23:13:38.156Z,15.30
2023-02-09T23:16:13.404Z,14.30
2023-02-09T23:18:45.087Z,14.40
2023-02-09T23:21:12.682Z,14.17
2023-02-09T23:23:39.734Z,15.43
2023-02-09T23:26:06.812Z,15.00
2023-02-09T23:28:33.832Z,15.33
2023-02-09T23:31:09.308Z,14.40
2023-02-09T23:33:37.636Z,14.53
2023-02-09T23:36:10.136Z,15.43
2023-02-09T23:38:37.467Z,14.77
2023-02-09T23:41:08.851Z,13.50
2023-02-09T23:43:36.642Z,15.03
2023-02-09T23:46:09.019Z,14.10
2023-02-09T23:48:36.520Z,14.47
2023-02-09T23:51:08.707Z,14.30
2023-02-09T23:53:35.853Z,13.50
2023-02-09T23:56:06.535Z,14.67
2023-02-09T23:58:38.339Z,14.07
